sensor_id;sensor_type;location;lat;lon;timestamp;P1;durP1;ratioP1;P2;durP2;ratioP2
73100;SDS011;61288;53.446;-2.266;2023-02-19T00:00:00;12.02;;;2.00;;
73100;SDS011;61288;53.446;-2.266;2023-02-19T00:02:26;10.85;;;2.00;;
73100;SDS011;61288;53.446;-2.266;2023-02-19T00:04:51;11.13;;;2.00;;
73100;SDS011;61288;53.446;-2.266;2023-02-19T00:07:17;9.02;;;1.77;;
73100;SDS011;61288;53.446;-2.266;2023-02-19T00:09:42;11.48;;;2.20;;
73100;SDS011;61288;53.446;-2.266;2023-02-19T00:12:07;10.43;;;1.80;;
73100;SDS011;61288;53.446;-2.266;2023-02-19T00:14:33;13.27;;;2.03;;
73100;SDS011;61288;53.446;-2.266;2023-02-19T00:16:59;11.68;;;2.20;;
73100;SDS011;61288;53.446;-2.266;2023-02-19T00:19:24;11.45;;;2.00;;
73100;SDS011;61288;53.446;-2.266;2023-02-19T00:21:51;11.20;;;2.17;;
73100;SDS011;61288;53.446;-2.266;2023-02-19T00:24:16;17.17;;;2.15;;
73100;SDS011;61288;53.446;-2.266;2023-02-19T00:26:43;12.10;;;2.17;;
73100;SDS011;61288;53.446;-2.266;2023-02-19T00:29:13;11.30;;;1.80;;
73100;SDS011;61288;53.446;-2.266;2023-02-19T00:31:41;13.95;;;2.42;;
73100;SDS011;61288;53.446;-2.266;2023-02-19T00:34:08;8.20;;;2.10;;
73100;SDS011;61288;53.446;-2.266;2023-02-19T00:36:35;9.75;;;2.28;;
73100;SDS011;61288;53.446;-2.266;2023-02-19T00:39:03;11.10;;;2.15;;
73100;SDS011;61288;53.446;-2.266;2023-02-19T00:41:30;7.80;;;2.03;;
73100;SDS011;61288;53.446;-2.266;2023-02-19T00:44:03;10.27;;;2.20;;
73100;SDS011;61288;53.446;-2.266;2023-02-19T00:46:37;11.82;;;2.17;;
73100;SDS011;61288;53.446;-2.266;2023-02-19T00:49:06;6.88;;;2.00;;
73100;SDS011;61288;53.446;-2.266;2023-02-19T00:51:35;10.90;;;2.25;;
73100;SDS011;61288;53.446;-2.266;2023-02-19T00:54:03;10.80;;;2.00;;
73100;SDS011;61288;53.446;-2.266;2023-02-19T00:56:29;12.73;;;3.17;;
73100;SDS011;61288;53.446;-2.266;2023-02-19T00:58:55;10.70;;;2.20;;
73100;SDS011;61288;53.446;-2.266;2023-02-19T01:01:21;11.85;;;2.20;;
73100;SDS011;61288;53.446;-2.266;2023-02-19T01:03:47;12.77;;;2.20;;
73100;SDS011;61288;53.446;-2.266;2023-02-19T01:06:14;14.13;;;1.85;;
73100;SDS011;61288;53.446;-2.266;2023-02-19T01:08:41;12.35;;;1.90;;
73100;SDS011;61288;53.446;-2.266;2023-02-19T01:11:07;9.60;;;2.17;;
73100;SDS011;61288;53.446;-2.266;2023-02-19T01:13:36;8.85;;;1.70;;
73100;SDS011;61288;53.446;-2.266;2023-02-19T01:16:03;13.43;;;1.92;;
73100;SDS011;61288;53.446;-2.266;2023-02-19T01:18:32;8.10;;;1.80;;
73100;SDS011;61288;53.446;-2.266;2023-02-19T01:20:58;8.32;;;1.58;;
73100;SDS011;61288;53.446;-2.266;2023-02-19T01:23:24;11.68;;;1.75;;
73100;SDS011;61288;53.446;-2.266;2023-02-19T01:25:50;7.45;;;1.13;;
73100;SDS011;61288;53.446;-2.266;2023-02-19T01:28:15;6.20;;;1.15;;
73100;SDS011;61288;53.446;-2.266;2023-02-19T01:30:41;7.75;;;1.30;;
73100;SDS011;61288;53.446;-2.266;2023-02-19T01:33:07;5.18;;;1.20;;
73100;SDS011;61288;53.446;-2.266;2023-02-19T01:35:37;9.40;;;1.33;;
73100;SDS011;61288;53.446;-2.266;2023-02-19T01:38:07;9.10;;;1.23;;
73100;SDS011;61288;53.446;-2.266;2023-02-19T01:40:32;6.72;;;1.30;;
73100;SDS011;61288;53.446;-2.266;2023-02-19T01:42:58;6.03;;;1.20;;
73100;SDS011;61288;53.446;-2.266;2023-02-19T01:45:26;11.55;;;1.50;;
73100;SDS011;61288;53.446;-2.266;2023-02-19T01:48:00;6.22;;;1.40;;
73100;SDS011;61288;53.446;-2.266;2023-02-19T01:50:42;6.28;;;1.08;;
73100;SDS011;61288;53.446;-2.266;2023-02-19T01:53:11;5.40;;;0.90;;
73100;SDS011;61288;53.446;-2.266;2023-02-19T01:55:41;4.05;;;0.95;;
73100;SDS011;61288;53.446;-2.266;2023-02-19T01:58:10;4.68;;;0.88;;
73100;SDS011;61288;53.446;-2.266;2023-02-19T02:00:35;4.88;;;0.85;;
73100;SDS011;61288;53.446;-2.266;2023-02-19T02:03:01;6.05;;;1.35;;
73100;SDS011;61288;53.446;-2.266;2023-02-19T02:08:09;4.35;;;0.75;;
73100;SDS011;61288;53.446;-2.266;2023-02-19T02:10:56;3.63;;;1.10;;
73100;SDS011;61288;53.446;-2.266;2023-02-19T02:13:21;5.78;;;1.10;;
73100;SDS011;61288;53.446;-2.266;2023-02-19T02:15:53;6.18;;;0.80;;
73100;SDS011;61288;53.446;-2.266;2023-02-19T02:18:45;3.33;;;0.77;;
73100;SDS011;61288;53.446;-2.266;2023-02-19T02:24:11;4.47;;;0.90;;
73100;SDS011;61288;53.446;-2.266;2023-02-19T02:29:54;6.85;;;1.10;;
73100;SDS011;61288;53.446;-2.266;2023-02-19T02:32:40;5.40;;;1.00;;
73100;SDS011;61288;53.446;-2.266;2023-02-19T02:35:19;7.78;;;1.13;;
73100;SDS011;61288;53.446;-2.266;2023-02-19T02:37:49;6.85;;;0.95;;
73100;SDS011;61288;53.446;-2.266;2023-02-19T02:40:20;5.70;;;1.00;;
73100;SDS011;61288;53.446;-2.266;2023-02-19T02:42:46;5.25;;;1.08;;
73100;SDS011;61288;53.446;-2.266;2023-02-19T02:53:12;5.35;;;1.10;;
73100;SDS011;61288;53.446;-2.266;2023-02-19T02:56:03;7.13;;;1.35;;
73100;SDS011;61288;53.446;-2.266;2023-02-19T02:58:31;8.85;;;1.38;;
73100;SDS011;61288;53.446;-2.266;2023-02-19T03:01:06;9.02;;;1.35;;
73100;SDS011;61288;53.446;-2.266;2023-02-19T03:03:56;10.10;;;1.60;;
73100;SDS011;61288;53.446;-2.266;2023-02-19T03:06:27;5.93;;;1.02;;
73100;SDS011;61288;53.446;-2.266;2023-02-19T03:08:57;7.63;;;1.30;;
73100;SDS011;61288;53.446;-2.266;2023-02-19T03:11:31;6.00;;;1.20;;
73100;SDS011;61288;53.446;-2.266;2023-02-19T03:14:20;3.10;;;0.90;;
73100;SDS011;61288;53.446;-2.266;2023-02-19T03:17:28;11.85;;;2.35;;
73100;SDS011;61288;53.446;-2.266;2023-02-19T03:20:27;6.75;;;1.20;;
73100;SDS011;61288;53.446;-2.266;2023-02-19T03:22:58;9.93;;;1.70;;
73100;SDS011;61288;53.446;-2.266;2023-02-19T03:25:27;10.38;;;1.52;;
73100;SDS011;61288;53.446;-2.266;2023-02-19T03:28:21;5.10;;;1.10;;
73100;SDS011;61288;53.446;-2.266;2023-02-19T03:31:10;3.30;;;1.10;;
73100;SDS011;61288;53.446;-2.266;2023-02-19T03:33:41;10.07;;;1.20;;
73100;SDS011;61288;53.446;-2.266;2023-02-19T03:36:11;4.93;;;1.10;;
73100;SDS011;61288;53.446;-2.266;2023-02-19T03:49:27;5.05;;;1.00;;
73100;SDS011;61288;53.446;-2.266;2023-02-19T03:57:55;5.50;;;0.75;;
73100;SDS011;61288;53.446;-2.266;2023-02-19T04:00:31;7.40;;;1.00;;
73100;SDS011;61288;53.446;-2.266;2023-02-19T04:05:52;7.50;;;1.08;;
73100;SDS011;61288;53.446;-2.266;2023-02-19T04:08:23;6.07;;;1.00;;
73100;SDS011;61288;53.446;-2.266;2023-02-19T04:10:50;1.85;;;0.85;;
73100;SDS011;61288;53.446;-2.266;2023-02-19T04:13:19;8.73;;;0.90;;
73100;SDS011;61288;53.446;-2.266;2023-02-19T04:15:48;6.90;;;1.05;;
73100;SDS011;61288;53.446;-2.266;2023-02-19T04:18:19;7.80;;;0.98;;
73100;SDS011;61288;53.446;-2.266;2023-02-19T04:20:49;7.50;;;0.93;;
73100;SDS011;61288;53.446;-2.266;2023-02-19T04:23:15;6.35;;;1.15;;
73100;SDS011;61288;53.446;-2.266;2023-02-19T04:25:45;6.97;;;0.88;;
73100;SDS011;61288;53.446;-2.266;2023-02-19T04:28:16;3.38;;;0.75;;
73100;SDS011;61288;53.446;-2.266;2023-02-19T04:30:43;6.15;;;0.75;;
73100;SDS011;61288;53.446;-2.266;2023-02-19T04:33:09;5.72;;;0.90;;
73100;SDS011;61288;53.446;-2.266;2023-02-19T04:35:35;7.53;;;1.00;;
73100;SDS011;61288;53.446;-2.266;2023-02-19T04:38:00;4.90;;;0.93;;
73100;SDS011;61288;53.446;-2.266;2023-02-19T04:40:26;4.57;;;1.00;;
73100;SDS011;61288;53.446;-2.266;2023-02-19T04:42:51;9.40;;;1.17;;
73100;SDS011;61288;53.446;-2.266;2023-02-19T04:45:17;6.53;;;1.15;;
73100;SDS011;61288;53.446;-2.266;2023-02-19T04:47:42;4.93;;;0.98;;
73100;SDS011;61288;53.446;-2.266;2023-02-19T04:50:09;6.15;;;0.90;;
73100;SDS011;61288;53.446;-2.266;2023-02-19T04:52:34;7.47;;;0.95;;
73100;SDS011;61288;53.446;-2.266;2023-02-19T04:55:00;3.15;;;0.82;;
73100;SDS011;61288;53.446;-2.266;2023-02-19T04:57:26;5.35;;;0.95;;
73100;SDS011;61288;53.446;-2.266;2023-02-19T04:59:52;8.23;;;1.15;;
73100;SDS011;61288;53.446;-2.266;2023-02-19T05:02:18;5.35;;;1.30;;
73100;SDS011;61288;53.446;-2.266;2023-02-19T05:04:43;6.20;;;1.20;;
73100;SDS011;61288;53.446;-2.266;2023-02-19T05:07:09;4.35;;;0.85;;
73100;SDS011;61288;53.446;-2.266;2023-02-19T05:09:34;6.43;;;0.85;;
73100;SDS011;61288;53.446;-2.266;2023-02-19T05:12:00;4.75;;;1.20;;
73100;SDS011;61288;53.446;-2.266;2023-02-19T05:14:25;3.58;;;1.13;;
73100;SDS011;61288;53.446;-2.266;2023-02-19T05:16:51;6.63;;;1.13;;
73100;SDS011;61288;53.446;-2.266;2023-02-19T05:19:16;4.18;;;1.08;;
73100;SDS011;61288;53.446;-2.266;2023-02-19T05:21:42;3.17;;;1.10;;
73100;SDS011;61288;53.446;-2.266;2023-02-19T05:24:07;8.48;;;0.90;;
73100;SDS011;61288;53.446;-2.266;2023-02-19T05:26:33;7.15;;;1.05;;
73100;SDS011;61288;53.446;-2.266;2023-02-19T05:28:59;4.32;;;0.85;;
73100;SDS011;61288;53.446;-2.266;2023-02-19T05:34:26;2.63;;;0.68;;
73100;SDS011;61288;53.446;-2.266;2023-02-19T05:36:51;8.68;;;1.25;;
73100;SDS011;61288;53.446;-2.266;2023-02-19T05:39:17;5.95;;;0.93;;
73100;SDS011;61288;53.446;-2.266;2023-02-19T05:41:44;5.60;;;0.90;;
73100;SDS011;61288;53.446;-2.266;2023-02-19T05:44:09;4.20;;;0.90;;
73100;SDS011;61288;53.446;-2.266;2023-02-19T05:46:35;6.63;;;1.13;;
73100;SDS011;61288;53.446;-2.266;2023-02-19T05:49:00;5.55;;;0.90;;
73100;SDS011;61288;53.446;-2.266;2023-02-19T05:51:27;5.00;;;1.05;;
73100;SDS011;61288;53.446;-2.266;2023-02-19T05:53:53;4.50;;;1.08;;
73100;SDS011;61288;53.446;-2.266;2023-02-19T05:58:57;9.43;;;1.42;;
73100;SDS011;61288;53.446;-2.266;2023-02-19T06:01:24;3.05;;;0.90;;
73100;SDS011;61288;53.446;-2.266;2023-02-19T06:03:53;7.40;;;1.08;;
73100;SDS011;61288;53.446;-2.266;2023-02-19T06:06:20;9.63;;;1.25;;
73100;SDS011;61288;53.446;-2.266;2023-02-19T06:08:47;4.93;;;0.90;;
73100;SDS011;61288;53.446;-2.266;2023-02-19T06:11:17;5.82;;;0.90;;
73100;SDS011;61288;53.446;-2.266;2023-02-19T06:13:43;6.07;;;0.95;;
73100;SDS011;61288;53.446;-2.266;2023-02-19T06:16:08;3.80;;;0.85;;
73100;SDS011;61288;53.446;-2.266;2023-02-19T06:18:34;10.95;;;1.30;;
73100;SDS011;61288;53.446;-2.266;2023-02-19T06:21:00;4.63;;;1.35;;
73100;SDS011;61288;53.446;-2.266;2023-02-19T06:23:27;5.70;;;1.13;;
73100;SDS011;61288;53.446;-2.266;2023-02-19T06:25:53;3.15;;;0.90;;
73100;SDS011;61288;53.446;-2.266;2023-02-19T06:28:19;7.40;;;1.10;;
73100;SDS011;61288;53.446;-2.266;2023-02-19T06:30:45;10.55;;;1.63;;
73100;SDS011;61288;53.446;-2.266;2023-02-19T06:33:10;3.80;;;1.00;;
73100;SDS011;61288;53.446;-2.266;2023-02-19T06:35:36;7.93;;;1.63;;
73100;SDS011;61288;53.446;-2.266;2023-02-19T06:38:01;9.77;;;1.10;;
73100;SDS011;61288;53.446;-2.266;2023-02-19T06:40:27;6.60;;;1.13;;
73100;SDS011;61288;53.446;-2.266;2023-02-19T06:42:53;6.93;;;1.17;;
73100;SDS011;61288;53.446;-2.266;2023-02-19T06:45:18;5.38;;;1.13;;
73100;SDS011;61288;53.446;-2.266;2023-02-19T06:47:44;3.20;;;0.73;;
73100;SDS011;61288;53.446;-2.266;2023-02-19T06:50:09;4.97;;;1.02;;
73100;SDS011;61288;53.446;-2.266;2023-02-19T06:52:35;5.55;;;1.02;;
73100;SDS011;61288;53.446;-2.266;2023-02-19T06:55:00;6.45;;;1.10;;
73100;SDS011;61288;53.446;-2.266;2023-02-19T06:57:26;6.20;;;1.60;;
73100;SDS011;61288;53.446;-2.266;2023-02-19T06:59:51;7.90;;;1.45;;
73100;SDS011;61288;53.446;-2.266;2023-02-19T07:02:17;8.68;;;1.80;;
73100;SDS011;61288;53.446;-2.266;2023-02-19T07:04:42;9.65;;;2.00;;
73100;SDS011;61288;53.446;-2.266;2023-02-19T07:07:10;11.52;;;2.22;;
73100;SDS011;61288;53.446;-2.266;2023-02-19T07:09:36;9.07;;;1.20;;
73100;SDS011;61288;53.446;-2.266;2023-02-19T07:12:01;7.90;;;2.28;;
73100;SDS011;61288;53.446;-2.266;2023-02-19T07:14:27;11.00;;;1.30;;
73100;SDS011;61288;53.446;-2.266;2023-02-19T07:16:53;7.25;;;1.30;;
73100;SDS011;61288;53.446;-2.266;2023-02-19T07:19:19;9.55;;;1.63;;
73100;SDS011;61288;53.446;-2.266;2023-02-19T07:21:45;9.65;;;1.70;;
73100;SDS011;61288;53.446;-2.266;2023-02-19T07:24:10;9.93;;;1.60;;
73100;SDS011;61288;53.446;-2.266;2023-02-19T07:26:36;6.45;;;1.33;;
73100;SDS011;61288;53.446;-2.266;2023-02-19T07:29:01;12.88;;;1.75;;
73100;SDS011;61288;53.446;-2.266;2023-02-19T07:31:27;14.32;;;1.52;;
73100;SDS011;61288;53.446;-2.266;2023-02-19T07:33:53;10.45;;;1.75;;
73100;SDS011;61288;53.446;-2.266;2023-02-19T07:36:20;13.77;;;1.70;;
73100;SDS011;61288;53.446;-2.266;2023-02-19T07:38:46;13.70;;;1.80;;
73100;SDS011;61288;53.446;-2.266;2023-02-19T07:41:19;6.45;;;1.63;;
73100;SDS011;61288;53.446;-2.266;2023-02-19T07:43:44;7.95;;;1.40;;
73100;SDS011;61288;53.446;-2.266;2023-02-19T07:46:11;8.23;;;1.58;;
73100;SDS011;61288;53.446;-2.266;2023-02-19T07:48:38;7.13;;;1.40;;
73100;SDS011;61288;53.446;-2.266;2023-02-19T07:51:05;7.72;;;1.30;;
73100;SDS011;61288;53.446;-2.266;2023-02-19T07:53:33;7.43;;;1.75;;
73100;SDS011;61288;53.446;-2.266;2023-02-19T07:56:00;7.85;;;1.38;;
73100;SDS011;61288;53.446;-2.266;2023-02-19T07:58:28;4.63;;;1.30;;
73100;SDS011;61288;53.446;-2.266;2023-02-19T08:00:53;12.05;;;1.50;;
73100;SDS011;61288;53.446;-2.266;2023-02-19T08:03:19;8.05;;;1.27;;
73100;SDS011;61288;53.446;-2.266;2023-02-19T08:05:45;7.22;;;1.60;;
73100;SDS011;61288;53.446;-2.266;2023-02-19T08:08:13;10.30;;;1.45;;
73100;SDS011;61288;53.446;-2.266;2023-02-19T08:10:40;13.00;;;1.90;;
73100;SDS011;61288;53.446;-2.266;2023-02-19T08:13:25;9.70;;;2.00;;
73100;SDS011;61288;53.446;-2.266;2023-02-19T08:18:26;8.75;;;1.38;;
73100;SDS011;61288;53.446;-2.266;2023-02-19T08:20:53;7.68;;;1.85;;
73100;SDS011;61288;53.446;-2.266;2023-02-19T08:23:19;6.35;;;1.33;;
73100;SDS011;61288;53.446;-2.266;2023-02-19T08:25:46;6.85;;;1.20;;
73100;SDS011;61288;53.446;-2.266;2023-02-19T08:28:12;7.13;;;1.30;;
73100;SDS011;61288;53.446;-2.266;2023-02-19T08:30:41;8.45;;;2.05;;
73100;SDS011;61288;53.446;-2.266;2023-02-19T08:33:09;6.40;;;1.20;;
73100;SDS011;61288;53.446;-2.266;2023-02-19T08:35:36;7.10;;;1.38;;
73100;SDS011;61288;53.446;-2.266;2023-02-19T08:38:03;10.52;;;2.03;;
73100;SDS011;61288;53.446;-2.266;2023-02-19T08:40:32;6.15;;;1.33;;
73100;SDS011;61288;53.446;-2.266;2023-02-19T08:43:02;3.88;;;1.30;;
73100;SDS011;61288;53.446;-2.266;2023-02-19T08:45:29;5.88;;;1.20;;
73100;SDS011;61288;53.446;-2.266;2023-02-19T08:47:55;7.85;;;1.30;;
73100;SDS011;61288;53.446;-2.266;2023-02-19T08:50:21;4.97;;;1.17;;
73100;SDS011;61288;53.446;-2.266;2023-02-19T08:52:47;6.50;;;1.20;;
73100;SDS011;61288;53.446;-2.266;2023-02-19T08:55:12;10.20;;;1.55;;
73100;SDS011;61288;53.446;-2.266;2023-02-19T08:57:38;4.30;;;1.40;;
73100;SDS011;61288;53.446;-2.266;2023-02-19T09:00:04;8.13;;;1.13;;
73100;SDS011;61288;53.446;-2.266;2023-02-19T09:02:31;8.18;;;1.27;;
73100;SDS011;61288;53.446;-2.266;2023-02-19T09:04:57;6.80;;;1.75;;
73100;SDS011;61288;53.446;-2.266;2023-02-19T09:07:22;7.53;;;1.60;;
73100;SDS011;61288;53.446;-2.266;2023-02-19T09:09:49;5.90;;;1.48;;
73100;SDS011;61288;53.446;-2.266;2023-02-19T09:12:14;9.38;;;1.40;;
73100;SDS011;61288;53.446;-2.266;2023-02-19T09:14:40;5.97;;;1.38;;
73100;SDS011;61288;53.446;-2.266;2023-02-19T09:17:06;8.60;;;1.63;;
73100;SDS011;61288;53.446;-2.266;2023-02-19T09:19:33;5.75;;;1.35;;
73100;SDS011;61288;53.446;-2.266;2023-02-19T09:22:01;7.45;;;1.63;;
73100;SDS011;61288;53.446;-2.266;2023-02-19T09:24:28;6.95;;;1.52;;
73100;SDS011;61288;53.446;-2.266;2023-02-19T09:26:53;7.30;;;1.40;;
73100;SDS011;61288;53.446;-2.266;2023-02-19T09:29:20;9.70;;;2.30;;
73100;SDS011;61288;53.446;-2.266;2023-02-19T09:31:48;11.18;;;1.73;;
73100;SDS011;61288;53.446;-2.266;2023-02-19T09:34:13;7.18;;;1.58;;
73100;SDS011;61288;53.446;-2.266;2023-02-19T09:36:39;9.95;;;1.80;;
73100;SDS011;61288;53.446;-2.266;2023-02-19T09:39:05;7.82;;;1.85;;
73100;SDS011;61288;53.446;-2.266;2023-02-19T09:41:33;5.88;;;1.40;;
73100;SDS011;61288;53.446;-2.266;2023-02-19T09:44:03;8.07;;;1.73;;
73100;SDS011;61288;53.446;-2.266;2023-02-19T09:46:35;8.63;;;1.63;;
73100;SDS011;61288;53.446;-2.266;2023-02-19T09:49:04;8.05;;;1.38;;
73100;SDS011;61288;53.446;-2.266;2023-02-19T09:51:33;8.70;;;1.42;;
73100;SDS011;61288;53.446;-2.266;2023-02-19T09:54:01;5.10;;;1.35;;
73100;SDS011;61288;53.446;-2.266;2023-02-19T09:56:30;8.43;;;1.63;;
73100;SDS011;61288;53.446;-2.266;2023-02-19T09:58:56;12.10;;;1.67;;
73100;SDS011;61288;53.446;-2.266;2023-02-19T10:01:24;5.93;;;1.65;;
73100;SDS011;61288;53.446;-2.266;2023-02-19T10:03:53;8.18;;;1.88;;
73100;SDS011;61288;53.446;-2.266;2023-02-19T10:06:20;7.82;;;1.70;;
73100;SDS011;61288;53.446;-2.266;2023-02-19T10:08:53;8.02;;;1.70;;
73100;SDS011;61288;53.446;-2.266;2023-02-19T10:11:24;11.90;;;2.00;;
73100;SDS011;61288;53.446;-2.266;2023-02-19T10:14:12;8.38;;;1.80;;
73100;SDS011;61288;53.446;-2.266;2023-02-19T10:16:44;9.13;;;1.80;;
73100;SDS011;61288;53.446;-2.266;2023-02-19T10:21:39;6.47;;;1.90;;
73100;SDS011;61288;53.446;-2.266;2023-02-19T10:24:06;9.30;;;1.90;;
73100;SDS011;61288;53.446;-2.266;2023-02-19T10:26:36;8.15;;;2.15;;
73100;SDS011;61288;53.446;-2.266;2023-02-19T10:29:02;6.35;;;1.60;;
73100;SDS011;61288;53.446;-2.266;2023-02-19T10:31:29;5.25;;;1.40;;
73100;SDS011;61288;53.446;-2.266;2023-02-19T10:33:57;6.63;;;1.35;;
73100;SDS011;61288;53.446;-2.266;2023-02-19T10:36:36;6.75;;;1.35;;
73100;SDS011;61288;53.446;-2.266;2023-02-19T10:39:46;4.57;;;1.42;;
73100;SDS011;61288;53.446;-2.266;2023-02-19T10:42:19;7.70;;;1.40;;
73100;SDS011;61288;53.446;-2.266;2023-02-19T10:44:53;6.22;;;1.42;;
73100;SDS011;61288;53.446;-2.266;2023-02-19T10:47:26;6.65;;;1.35;;
73100;SDS011;61288;53.446;-2.266;2023-02-19T10:49:54;7.57;;;1.38;;
73100;SDS011;61288;53.446;-2.266;2023-02-19T10:52:30;5.70;;;1.23;;
73100;SDS011;61288;53.446;-2.266;2023-02-19T10:55:23;7.78;;;1.73;;
73100;SDS011;61288;53.446;-2.266;2023-02-19T10:57:53;7.07;;;1.40;;
73100;SDS011;61288;53.446;-2.266;2023-02-19T11:00:26;7.85;;;1.73;;
73100;SDS011;61288;53.446;-2.266;2023-02-19T11:05:49;5.18;;;1.20;;
73100;SDS011;61288;53.446;-2.266;2023-02-19T11:08:24;5.47;;;1.75;;
73100;SDS011;61288;53.446;-2.266;2023-02-19T11:10:51;5.30;;;1.40;;
73100;SDS011;61288;53.446;-2.266;2023-02-19T11:13:38;7.55;;;2.05;;
73100;SDS011;61288;53.446;-2.266;2023-02-19T11:16:06;5.82;;;1.60;;
73100;SDS011;61288;53.446;-2.266;2023-02-19T11:18:32;5.93;;;1.55;;
73100;SDS011;61288;53.446;-2.266;2023-02-19T11:21:04;6.75;;;1.80;;
73100;SDS011;61288;53.446;-2.266;2023-02-19T11:23:35;9.40;;;2.00;;
73100;SDS011;61288;53.446;-2.266;2023-02-19T11:26:14;5.88;;;1.50;;
73100;SDS011;61288;53.446;-2.266;2023-02-19T11:28:43;4.97;;;1.40;;
73100;SDS011;61288;53.446;-2.266;2023-02-19T11:31:13;3.92;;;1.50;;
73100;SDS011;61288;53.446;-2.266;2023-02-19T11:49:40;9.50;;;1.40;;
73100;SDS011;61288;53.446;-2.266;2023-02-19T12:05:51;9.40;;;1.40;;
73100;SDS011;61288;53.446;-2.266;2023-02-19T12:17:07;4.30;;;1.20;;
73100;SDS011;61288;53.446;-2.266;2023-02-19T12:22:31;7.05;;;1.48;;
73100;SDS011;61288;53.446;-2.266;2023-02-19T12:25:10;4.03;;;1.25;;
73100;SDS011;61288;53.446;-2.266;2023-02-19T12:27:59;4.38;;;1.30;;
73100;SDS011;61288;53.446;-2.266;2023-02-19T12:36:26;4.00;;;1.38;;
73100;SDS011;61288;53.446;-2.266;2023-02-19T12:44:52;4.10;;;1.45;;
73100;SDS011;61288;53.446;-2.266;2023-02-19T12:47:24;4.85;;;1.58;;
73100;SDS011;61288;53.446;-2.266;2023-02-19T12:52:43;6.28;;;1.70;;
73100;SDS011;61288;53.446;-2.266;2023-02-19T12:58:03;5.60;;;1.77;;
73100;SDS011;61288;53.446;-2.266;2023-02-19T13:00:49;5.38;;;1.52;;
73100;SDS011;61288;53.446;-2.266;2023-02-19T13:06:39;4.25;;;1.52;;
73100;SDS011;61288;53.446;-2.266;2023-02-19T13:09:10;5.78;;;1.80;;
73100;SDS011;61288;53.446;-2.266;2023-02-19T13:12:07;6.78;;;2.20;;
73100;SDS011;61288;53.446;-2.266;2023-02-19T13:14:45;5.35;;;2.40;;
73100;SDS011;61288;53.446;-2.266;2023-02-19T13:17:19;7.78;;;2.80;;
73100;SDS011;61288;53.446;-2.266;2023-02-19T13:19:51;5.15;;;1.80;;
73100;SDS011;61288;53.446;-2.266;2023-02-19T13:22:34;4.95;;;1.90;;
73100;SDS011;61288;53.446;-2.266;2023-02-19T13:25:37;8.93;;;2.50;;
73100;SDS011;61288;53.446;-2.266;2023-02-19T13:31:19;6.53;;;2.22;;
73100;SDS011;61288;53.446;-2.266;2023-02-19T13:36:38;8.98;;;3.40;;
73100;SDS011;61288;53.446;-2.266;2023-02-19T13:39:04;9.43;;;3.65;;
73100;SDS011;61288;53.446;-2.266;2023-02-19T13:41:34;9.43;;;4.35;;
73100;SDS011;61288;53.446;-2.266;2023-02-19T13:44:18;11.43;;;4.25;;
73100;SDS011;61288;53.446;-2.266;2023-02-19T13:46:46;11.40;;;4.88;;
73100;SDS011;61288;53.446;-2.266;2023-02-19T13:49:23;11.00;;;5.05;;
73100;SDS011;61288;53.446;-2.266;2023-02-19T13:52:04;10.65;;;4.97;;
73100;SDS011;61288;53.446;-2.266;2023-02-19T13:55:33;11.25;;;4.57;;
73100;SDS011;61288;53.446;-2.266;2023-02-19T14:00:58;9.63;;;4.03;;
73100;SDS011;61288;53.446;-2.266;2023-02-19T14:06:02;9.43;;;3.17;;
73100;SDS011;61288;53.446;-2.266;2023-02-19T14:08:52;8.90;;;3.20;;
73100;SDS011;61288;53.446;-2.266;2023-02-19T14:14:25;9.00;;;2.92;;
73100;SDS011;61288;53.446;-2.266;2023-02-19T14:16:59;9.60;;;3.30;;
73100;SDS011;61288;53.446;-2.266;2023-02-19T14:28:01;7.53;;;2.60;;
73100;SDS011;61288;53.446;-2.266;2023-02-19T14:36:13;7.15;;;2.28;;
73100;SDS011;61288;53.446;-2.266;2023-02-19T14:38:43;10.77;;;2.30;;
73100;SDS011;61288;53.446;-2.266;2023-02-19T14:41:11;7.22;;;2.30;;
73100;SDS011;61288;53.446;-2.266;2023-02-19T14:43:38;11.00;;;2.15;;
73100;SDS011;61288;53.446;-2.266;2023-02-19T14:46:11;10.45;;;2.00;;
73100;SDS011;61288;53.446;-2.266;2023-02-19T14:48:45;7.05;;;2.03;;
73100;SDS011;61288;53.446;-2.266;2023-02-19T14:51:59;8.45;;;2.22;;
73100;SDS011;61288;53.446;-2.266;2023-02-19T14:54:12;9.18;;;1.85;;
73100;SDS011;61288;53.446;-2.266;2023-02-19T14:56:42;7.78;;;2.13;;
73100;SDS011;61288;53.446;-2.266;2023-02-19T15:01:35;12.68;;;3.30;;
73100;SDS011;61288;53.446;-2.266;2023-02-19T15:04:01;9.45;;;2.10;;
73100;SDS011;61288;53.446;-2.266;2023-02-19T15:06:26;7.90;;;2.15;;
73100;SDS011;61288;53.446;-2.266;2023-02-19T15:08:54;6.68;;;1.63;;
73100;SDS011;61288;53.446;-2.266;2023-02-19T15:11:25;6.75;;;1.60;;
73100;SDS011;61288;53.446;-2.266;2023-02-19T15:13:56;10.20;;;1.40;;
73100;SDS011;61288;53.446;-2.266;2023-02-19T15:16:23;5.53;;;1.48;;
73100;SDS011;61288;53.446;-2.266;2023-02-19T15:18:52;8.70;;;1.10;;
73100;SDS011;61288;53.446;-2.266;2023-02-19T15:21:27;6.63;;;1.40;;
73100;SDS011;61288;53.446;-2.266;2023-02-19T15:23:59;7.38;;;1.50;;
73100;SDS011;61288;53.446;-2.266;2023-02-19T15:26:34;8.88;;;1.40;;
73100;SDS011;61288;53.446;-2.266;2023-02-19T15:29:03;4.88;;;1.40;;
73100;SDS011;61288;53.446;-2.266;2023-02-19T15:31:35;4.38;;;1.35;;
73100;SDS011;61288;53.446;-2.266;2023-02-19T15:34:01;8.20;;;1.50;;
73100;SDS011;61288;53.446;-2.266;2023-02-19T15:36:30;4.63;;;0.90;;
73100;SDS011;61288;53.446;-2.266;2023-02-19T15:38:59;6.65;;;1.40;;
73100;SDS011;61288;53.446;-2.266;2023-02-19T15:41:28;8.88;;;1.50;;
73100;SDS011;61288;53.446;-2.266;2023-02-19T15:44:06;4.70;;;1.30;;
73100;SDS011;61288;53.446;-2.266;2023-02-19T15:46:34;6.47;;;1.48;;
73100;SDS011;61288;53.446;-2.266;2023-02-19T15:49:03;4.20;;;1.25;;
73100;SDS011;61288;53.446;-2.266;2023-02-19T15:54:40;5.78;;;1.33;;
73100;SDS011;61288;53.446;-2.266;2023-02-19T15:57:10;6.63;;;1.17;;
73100;SDS011;61288;53.446;-2.266;2023-02-19T15:59:52;5.20;;;1.30;;
73100;SDS011;61288;53.446;-2.266;2023-02-19T16:02:35;6.32;;;1.48;;
73100;SDS011;61288;53.446;-2.266;2023-02-19T16:05:03;2.70;;;1.08;;
73100;SDS011;61288;53.446;-2.266;2023-02-19T16:07:36;4.13;;;1.00;;
73100;SDS011;61288;53.446;-2.266;2023-02-19T16:12:41;5.13;;;1.20;;
73100;SDS011;61288;53.446;-2.266;2023-02-19T16:15:17;4.35;;;1.23;;
73100;SDS011;61288;53.446;-2.266;2023-02-19T16:17:44;3.65;;;1.10;;
73100;SDS011;61288;53.446;-2.266;2023-02-19T16:20:30;3.10;;;1.08;;
73100;SDS011;61288;53.446;-2.266;2023-02-19T16:23:00;5.05;;;1.30;;
73100;SDS011;61288;53.446;-2.266;2023-02-19T16:28:18;4.38;;;1.23;;
73100;SDS011;61288;53.446;-2.266;2023-02-19T16:30:45;4.43;;;1.13;;
73100;SDS011;61288;53.446;-2.266;2023-02-19T16:41:32;4.85;;;1.63;;
73100;SDS011;61288;53.446;-2.266;2023-02-19T16:43:58;2.92;;;1.20;;
73100;SDS011;61288;53.446;-2.266;2023-02-19T16:46:30;4.25;;;1.10;;
73100;SDS011;61288;53.446;-2.266;2023-02-19T16:48:57;3.05;;;1.20;;
73100;SDS011;61288;53.446;-2.266;2023-02-19T16:51:24;4.90;;;1.30;;
73100;SDS011;61288;53.446;-2.266;2023-02-19T16:53:51;4.78;;;1.52;;
73100;SDS011;61288;53.446;-2.266;2023-02-19T16:56:18;4.93;;;1.38;;
73100;SDS011;61288;53.446;-2.266;2023-02-19T17:01:16;6.90;;;1.80;;
73100;SDS011;61288;53.446;-2.266;2023-02-19T17:03:42;5.25;;;1.38;;
73100;SDS011;61288;53.446;-2.266;2023-02-19T17:06:10;3.90;;;1.35;;
73100;SDS011;61288;53.446;-2.266;2023-02-19T17:08:37;4.97;;;1.58;;
73100;SDS011;61288;53.446;-2.266;2023-02-19T17:11:09;2.80;;;1.02;;
73100;SDS011;61288;53.446;-2.266;2023-02-19T17:13:38;4.28;;;1.40;;
73100;SDS011;61288;53.446;-2.266;2023-02-19T17:16:04;5.38;;;1.80;;
73100;SDS011;61288;53.446;-2.266;2023-02-19T17:18:30;4.43;;;1.33;;
73100;SDS011;61288;53.446;-2.266;2023-02-19T17:20:58;5.22;;;1.60;;
73100;SDS011;61288;53.446;-2.266;2023-02-19T17:23:29;5.78;;;1.52;;
73100;SDS011;61288;53.446;-2.266;2023-02-19T17:25:54;5.82;;;1.63;;
73100;SDS011;61288;53.446;-2.266;2023-02-19T17:28:19;6.38;;;1.63;;
73100;SDS011;61288;53.446;-2.266;2023-02-19T17:30:45;8.43;;;2.30;;